createdAt,value
2019-01-14T18:23:45.061Z,100271.27
2019-01-14T18:26:21.671Z,100271.68
2019-01-14T21:00:00.188Z,100370.82
2019-01-14T21:02:33.486Z,100376.72
2019-01-14T21:06:01.699Z,100375.87
2019-01-14T21:08:35.022Z,100374.17
2019-01-14T21:11:08.616Z,100377.97
2019-01-14T21:13:41.938Z,100379.63
2019-01-14T21:16:15.394Z,100381.31
2019-01-14T21:18:48.763Z,100378.79
2019-01-14T21:21:22.348Z,100383.86
2019-01-14T21:23:56.519Z,100384.71
2019-01-14T21:26:30.019Z,100388.08
2019-01-14T21:29:03.407Z,100384.70
2019-01-14T21:31:36.920Z,100395.63
2019-01-14T21:34:10.232Z,100391.87
2019-01-14T21:36:43.583Z,100386.34
2019-01-14T21:39:16.984Z,100390.58
2019-01-14T21:41:50.347Z,100398.99
2019-01-14T21:44:23.813Z,100404.91
2019-01-14T21:46:57.324Z,100401.12
2019-01-14T21:49:30.645Z,100407.87
2019-01-14T21:52:04.244Z,100406.14
2019-01-14T21:54:37.569Z,100400.72
2019-01-14T21:57:11.026Z,100403.64
2019-01-14T21:59:44.345Z,100407.88
2019-01-14T22:02:17.781Z,100418.82
2019-01-14T22:04:51.116Z,100407.86
2019-01-14T22:07:24.534Z,100417.11
2019-01-14T22:09:57.938Z,100426.39
2019-01-14T22:12:31.348Z,100432.73
2019-01-14T22:15:07.306Z,100427.27
2019-01-14T22:17:40.739Z,100419.27
2019-01-14T22:20:16.697Z,100434.02
2019-01-14T22:22:50.401Z,100440.77
2019-01-14T22:25:23.794Z,100447.52
2019-01-14T22:27:57.232Z,100442.89
2019-01-14T22:30:31.439Z,100445.00
2019-01-14T22:33:05.172Z,100453.89
2019-01-14T22:35:38.561Z,100459.34
2019-01-14T22:38:12.067Z,100457.27
2019-01-14T22:40:45.458Z,100465.28
2019-01-14T22:43:18.891Z,100472.03
2019-01-14T22:45:52.298Z,100464.02
2019-01-14T22:48:25.887Z,100462.72
2019-01-14T22:50:59.216Z,100465.70
2019-01-14T22:53:32.791Z,100463.59
2019-01-14T22:56:06.201Z,100453.45
2019-01-14T22:58:39.632Z,100458.92
2019-01-14T23:01:16.202Z,100462.71
2019-01-14T23:03:49.715Z,100453.03
2019-01-14T23:06:23.035Z,100446.28
2019-01-14T23:08:56.405Z,100453.05
2019-01-14T23:11:29.791Z,100458.92
2019-01-14T23:14:03.240Z,100455.98
2019-01-14T23:16:36.626Z,100461.45
2019-01-14T23:19:10.063Z,100457.25
2019-01-14T23:21:43.407Z,100469.47
2019-01-14T23:24:17.070Z,100470.75
2019-01-14T23:26:50.396Z,100473.67
2019-01-14T23:29:23.827Z,100469.06
2019-01-14T23:31:57.163Z,100465.70
2019-01-14T23:34:30.587Z,100469.48
2019-01-14T23:37:03.973Z,100474.97
2019-01-14T23:39:37.415Z,100466.12
2019-01-14T23:42:10.756Z,100472.44
2019-01-14T23:44:44.523Z,100472.04
2019-01-14T23:47:17.894Z,100456.42
2019-01-14T23:49:51.418Z,100456.86
2019-01-14T23:52:24.828Z,100469.95
2019-01-14T23:54:58.293Z,100476.67
2019-01-14T23:57:31.640Z,100484.71
